Time;durP1;ratioP1;P1;durP2;ratioP2;P2;SDS_P1;SDS_P2;PMS_P1;PMS_P2;Temp;Humidity;BMP_temperature;BMP_pressure;BME280_temperature;BME280_humidity;BME280_pressure;Samples;Min_cycle;Max_cycle;Signal;HPM_P1;HPM_P2
2023/09/03 00:01:43;;;;;;;14.30;8.25;;;15.10;99.90;;;;;;5034598;28;20517;-69
2023/09/03 00:04:09;;;;;;;10.75;7.47;;;15.00;99.90;;;;;;5037288;28;20044;-69
2023/09/03 00:06:34;;;;;;;15.85;7.03;;;15.00;99.90;;;;;;5026258;28;20552;-69
2023/09/03 00:09:00;;;;;;;12.30;6.70;;;14.90;99.90;;;;;;5030161;28;20059;-69
2023/09/03 00:11:26;;;;;;;12.57;8.05;;;14.80;99.90;;;;;;5027636;28;20045;-69
2023/09/03 00:13:51;;;;;;;11.95;6.80;;;14.80;99.90;;;;;;5046310;28;20045;-69
2023/09/03 00:16:17;;;;;;;10.55;6.85;;;14.80;99.90;;;;;;5022998;28;20132;-69
2023/09/03 00:18:43;;;;;;;10.00;6.93;;;14.70;99.90;;;;;;5024065;28;20095;-69
2023/09/03 00:21:08;;;;;;;11.85;7.20;;;14.70;99.90;;;;;;5049602;28;20135;-69
2023/09/03 00:23:34;;;;;;;9.18;7.03;;;14.70;99.90;;;;;;5024712;28;20049;-68
2023/09/03 00:26:01;;;;;;;12.15;7.53;;;14.60;99.90;;;;;;5029071;28;20044;-69
2023/09/03 00:28:27;;;;;;;11.40;7.18;;;14.60;99.90;;;;;;5025310;28;20486;-69
2023/09/03 00:31:00;;;;;;;11.55;7.43;;;14.50;99.90;;;;;;5028530;28;20045;-69
2023/09/03 00:33:27;;;;;;;11.48;7.00;;;14.50;99.90;;;;;;5023003;28;20060;-69
2023/09/03 00:35:53;;;;;;;11.07;7.75;;;14.50;99.90;;;;;;5019460;28;20105;-69
2023/09/03 00:38:19;;;;;;;9.52;7.05;;;14.50;99.90;;;;;;5028206;28;20045;-69
2023/09/03 00:40:44;;;;;;;9.75;6.97;;;14.50;99.90;;;;;;5044541;28;20053;-69
2023/09/03 00:43:10;;;;;;;15.00;7.57;;;14.50;99.90;;;;;;5031085;28;20123;-69
2023/09/03 00:45:36;;;;;;;13.57;6.80;;;14.50;99.90;;;;;;5025548;28;20371;-69
2023/09/03 00:48:02;;;;;;;10.43;7.88;;;14.50;99.90;;;;;;5030599;28;20046;-69
2023/09/03 00:50:29;;;;;;;10.95;7.65;;;14.50;99.90;;;;;;5010466;28;20497;-69
2023/09/03 00:52:55;;;;;;;10.73;6.63;;;14.50;99.90;;;;;;5027375;28;20048;-69
2023/09/03 00:55:22;;;;;;;10.88;6.15;;;14.50;99.90;;;;;;5048465;28;20033;-69
2023/09/03 00:57:49;;;;;;;12.25;6.78;;;14.50;99.90;;;;;;5027088;28;20418;-69
2023/09/03 01:00:16;;;;;;;10.77;6.53;;;14.60;99.90;;;;;;5015729;28;20033;-69
2023/09/03 01:02:44;;;;;;;12.18;7.22;;;14.50;99.90;;;;;;5045547;28;20048;-69
2023/09/03 01:05:10;;;;;;;10.43;6.78;;;14.50;99.90;;;;;;5049996;28;20037;-69
2023/09/03 01:07:37;;;;;;;15.73;6.88;;;14.50;99.90;;;;;;5023800;28;20252;-69
2023/09/03 01:10:03;;;;;;;9.85;6.75;;;14.50;99.90;;;;;;5042286;28;20045;-69
2023/09/03 01:12:41;;;;;;;9.65;6.90;;;14.60;99.90;;;;;;5027887;28;20530;-69
2023/09/03 01:15:25;;;;;;;9.90;6.57;;;14.50;99.90;;;;;;5045580;28;20151;-69
2023/09/03 01:18:02;;;;;;;10.52;6.68;;;14.60;99.90;;;;;;5027327;28;20506;-69
2023/09/03 01:20:58;;;;;;;8.60;6.18;;;14.60;99.90;;;;;;5045272;28;20048;-69
2023/09/03 01:23:53;;;;;;;8.38;6.00;;;14.60;99.90;;;;;;5023086;28;20410;-69
2023/09/03 01:26:43;;;;;;;12.43;6.95;;;14.50;99.90;;;;;;5009128;28;20115;-69
2023/09/03 01:29:10;;;;;;;10.27;6.53;;;14.50;99.90;;;;;;5035713;28;20087;-69
2023/09/03 01:31:36;;;;;;;9.50;6.15;;;14.50;99.90;;;;;;5023903;28;20052;-69
2023/09/03 01:34:03;;;;;;;12.40;7.05;;;14.50;99.90;;;;;;5033024;28;20149;-69
2023/09/03 01:36:34;;;;;;;9.88;6.00;;;14.50;99.90;;;;;;5025574;28;20072;-69
2023/09/03 01:39:03;;;;;;;10.35;6.80;;;14.50;99.90;;;;;;5020787;28;20170;-69
2023/09/03 01:41:33;;;;;;;10.70;6.53;;;14.50;99.90;;;;;;5026165;28;20033;-69
2023/09/03 01:43:59;;;;;;;10.25;6.40;;;14.50;99.90;;;;;;5020981;28;20049;-69
2023/09/03 01:46:42;;;;;;;10.02;6.45;;;14.50;99.90;;;;;;5023376;28;20422;-69
2023/09/03 01:49:25;;;;;;;9.90;5.80;;;14.50;99.90;;;;;;5027134;28;20128;-69
2023/09/03 01:51:57;;;;;;;9.82;6.78;;;14.40;99.90;;;;;;5022035;28;20066;-69
2023/09/03 01:54:28;;;;;;;9.55;6.22;;;14.50;99.90;;;;;;5022655;28;20242;-69
2023/09/03 01:57:05;;;;;;;9.98;5.95;;;14.40;99.90;;;;;;5043198;28;20037;-69
2023/09/03 01:59:58;;;;;;;9.32;6.50;;;14.40;99.90;;;;;;5025784;28;20052;-69
2023/09/03 02:02:25;;;;;;;8.82;6.32;;;14.40;99.90;;;;;;5029150;28;20041;-70
2023/09/03 02:04:51;;;;;;;8.80;6.00;;;14.30;99.90;;;;;;5029676;28;20037;-70
2023/09/03 02:07:17;;;;;;;12.35;7.80;;;14.30;99.90;;;;;;5031045;28;20203;-70
2023/09/03 02:09:43;;;;;;;9.10;6.95;;;14.30;99.90;;;;;;5028305;28;20176;-69
2023/09/03 02:12:09;;;;;;;12.10;7.82;;;14.20;99.90;;;;;;5031797;28;20052;-69
2023/09/03 02:14:35;;;;;;;11.02;7.75;;;14.30;99.90;;;;;;5033586;28;20074;-69
2023/09/03 02:17:01;;;;;;;11.55;7.60;;;14.20;99.90;;;;;;5030691;28;20405;-69
2023/09/03 02:19:26;;;;;;;10.63;7.43;;;14.20;99.90;;;;;;5026439;28;20037;-69
2023/09/03 02:21:52;;;;;;;11.65;7.28;;;14.20;99.90;;;;;;5030429;28;20029;-69
2023/09/03 02:24:18;;;;;;;12.73;7.43;;;14.10;99.90;;;;;;5011627;28;20064;-68
2023/09/03 02:26:46;;;;;;;9.60;7.18;;;14.00;99.90;;;;;;5054443;28;20087;-69
2023/09/03 02:29:12;;;;;;;15.05;7.80;;;14.00;99.90;;;;;;5025742;28;20119;-69
2023/09/03 02:31:38;;;;;;;11.63;7.25;;;14.00;99.90;;;;;;5031164;28;20056;-69
2023/09/03 02:34:05;;;;;;;13.52;7.00;;;14.00;99.90;;;;;;5037386;28;20053;-69
2023/09/03 02:36:33;;;;;;;10.98;6.65;;;14.00;99.90;;;;;;5021184;28;20323;-68
2023/09/03 02:39:03;;;;;;;9.70;6.80;;;13.90;99.90;;;;;;5025133;28;20037;-69
2023/09/03 02:41:32;;;;;;;12.60;7.35;;;13.90;99.90;;;;;;5025484;28;20044;-69
2023/09/03 02:43:59;;;;;;;10.00;6.70;;;13.90;99.90;;;;;;5030328;28;20120;-68
2023/09/03 02:46:25;;;;;;;10.80;6.93;;;13.80;99.90;;;;;;5028527;28;20149;-69
2023/09/03 02:48:52;;;;;;;10.18;7.40;;;13.80;99.90;;;;;;5046859;28;20505;-68
2023/09/03 02:51:18;;;;;;;9.65;6.40;;;13.80;99.90;;;;;;5030925;28;20398;-69
2023/09/03 02:53:45;;;;;;;9.90;6.63;;;13.80;99.90;;;;;;5026301;28;20102;-69
2023/09/03 02:56:13;;;;;;;9.88;6.15;;;13.80;99.90;;;;;;5033519;28;20131;-69
2023/09/03 02:58:39;;;;;;;10.93;7.07;;;13.70;99.90;;;;;;5026128;28;20072;-68
2023/09/03 03:01:09;;;;;;;10.32;6.75;;;13.70;99.90;;;;;;5034475;28;20047;-69
2023/09/03 03:03:35;;;;;;;12.98;6.47;;;13.60;99.90;;;;;;5030713;28;20479;-73
2023/09/03 03:06:01;;;;;;;11.07;6.63;;;13.70;99.90;;;;;;5026784;28;20128;-69
2023/09/03 03:08:27;;;;;;;;;;;13.60;99.90;;;;;;5033971;28;20076;-69
2023/09/03 03:10:53;;;;;;;9.27;5.88;;;13.60;99.90;;;;;;5044612;28;19944;-69
2023/09/03 03:13:18;;;;;;;11.25;6.25;;;13.60;99.90;;;;;;5028617;28;20036;-69
2023/09/03 03:15:46;;;;;;;11.18;6.43;;;13.60;99.90;;;;;;5048688;28;20049;-69
2023/09/03 03:18:12;;;;;;;9.25;6.20;;;13.50;99.90;;;;;;5029071;28;20045;-69
2023/09/03 03:20:37;;;;;;;8.63;6.13;;;13.60;99.90;;;;;;5025117;28;20052;-69
2023/09/03 03:23:03;;;;;;;9.32;6.22;;;13.50;99.90;;;;;;5029171;28;20049;-69
2023/09/03 03:25:29;;;;;;;8.68;6.38;;;13.50;99.90;;;;;;5030316;28;20490;-68
2023/09/03 03:27:55;;;;;;;8.48;5.60;;;13.50;99.90;;;;;;5039249;28;20444;-69
2023/09/03 03:30:20;;;;;;;10.47;6.07;;;13.50;99.90;;;;;;5025429;28;20083;-69
2023/09/03 03:32:46;;;;;;;9.60;6.20;;;13.40;99.90;;;;;;5049409;22;20357;-70
2023/09/03 03:35:12;;;;;;;9.02;5.90;;;13.40;99.90;;;;;;5097977;28;20641;-70
2023/09/03 03:37:37;;;;;;;10.07;5.85;;;13.40;99.90;;;;;;5080040;28;20128;-69
2023/09/03 03:40:06;;;;;;;9.70;6.40;;;13.40;99.90;;;;;;5082417;28;20531;-70
2023/09/03 03:42:32;;;;;;;10.05;6.40;;;13.30;99.90;;;;;;5103826;27;20130;-70
2023/09/03 03:44:57;;;;;;;12.20;7.13;;;13.30;99.90;;;;;;5117506;27;20130;-70
2023/09/03 03:47:23;;;;;;;12.13;7.30;;;13.30;99.90;;;;;;5096904;27;20040;-69
2023/09/03 03:49:49;;;;;;;9.63;6.13;;;13.30;99.90;;;;;;5085933;28;20092;-69
2023/09/03 03:52:15;;;;;;;12.57;7.28;;;13.30;99.90;;;;;;5082735;28;20293;-69
2023/09/03 03:54:40;;;;;;;8.60;6.00;;;13.20;99.90;;;;;;5092888;27;20129;-70
2023/09/03 03:57:06;;;;;;;9.85;6.32;;;13.30;99.90;;;;;;5075624;28;20466;-69
2023/09/03 03:59:33;;;;;;;8.30;5.80;;;13.30;99.90;;;;;;5076253;28;20273;-69
2023/09/03 04:01:59;;;;;;;9.75;5.97;;;13.30;99.90;;;;;;5106983;27;20076;-70
2023/09/03 04:04:25;;;;;;;9.02;6.65;;;13.30;99.90;;;;;;5096781;27;20039;-69
2023/09/03 04:06:50;;;;;;;10.43;6.20;;;13.30;99.90;;;;;;5095137;27;20074;-70
2023/09/03 04:09:16;;;;;;;13.65;7.18;;;13.30;99.90;;;;;;5091446;28;20504;-69
2023/09/03 04:11:42;;;;;;;9.98;6.40;;;13.30;99.90;;;;;;5072919;28;20071;-69
2023/09/03 04:14:07;;;;;;;8.90;5.80;;;13.40;99.90;;;;;;5085083;28;20053;-69
2023/09/03 04:16:33;;;;;;;12.02;6.70;;;13.40;99.90;;;;;;5078135;27;20412;-69
2023/09/03 04:18:59;;;;;;;9.80;5.80;;;13.40;99.90;;;;;;5095064;28;20093;-69
2023/09/03 04:21:25;;;;;;;8.65;5.72;;;13.40;99.90;;;;;;5066595;28;20044;-69
2023/09/03 04:23:50;;;;;;;9.43;5.93;;;13.50;99.90;;;;;;5093874;28;20393;-69
2023/09/03 04:26:16;;;;;;;8.95;5.68;;;13.50;99.90;;;;;;5078846;28;20420;-69
2023/09/03 04:28:42;;;;;;;8.98;5.70;;;13.50;99.90;;;;;;5107069;27;20043;-69
2023/09/03 04:31:08;;;;;;;9.60;6.03;;;13.40;99.90;;;;;;5090818;28;20558;-69
2023/09/03 04:33:35;;;;;;;9.20;5.28;;;13.50;99.90;;;;;;5087703;28;20129;-69
2023/09/03 04:36:02;;;;;;;8.02;5.43;;;13.40;99.90;;;;;;5086250;28;20051;-70
2023/09/03 04:38:29;;;;;;;11.23;5.88;;;13.40;99.90;;;;;;5094879;28;20039;-70
2023/09/03 04:40:56;;;;;;;10.43;5.93;;;13.40;99.90;;;;;;5079978;28;20035;-69
2023/09/03 04:43:23;;;;;;;9.02;5.97;;;13.40;99.90;;;;;;5102256;27;20374;-69
2023/09/03 04:45:50;;;;;;;8.20;5.68;;;13.40;99.90;;;;;;5092474;27;20629;-69
2023/09/03 04:48:17;;;;;;;10.57;5.82;;;13.40;99.90;;;;;;5094272;28;20434;-70
2023/09/03 04:50:43;;;;;;;7.80;5.53;;;13.40;99.90;;;;;;5085929;28;20447;-70
2023/09/03 04:53:09;;;;;;;6.60;5.13;;;13.40;99.90;;;;;;5105441;27;20219;-69
2023/09/03 04:55:35;;;;;;;10.20;5.22;;;13.40;99.90;;;;;;5074711;28;20126;-70
2023/09/03 04:58:01;;;;;;;7.13;5.05;;;13.40;99.90;;;;;;5095345;28;20055;-69
2023/09/03 05:00:30;;;;;;;8.35;5.05;;;13.40;99.90;;;;;;5087665;27;20508;-69
2023/09/03 05:02:56;;;;;;;7.82;5.30;;;13.40;99.90;;;;;;5107832;27;20097;-69
2023/09/03 05:05:22;;;;;;;;;;;13.40;99.90;;;;;;5089227;28;20047;-69
2023/09/03 05:07:48;;;;;;;10.35;5.03;;;13.40;99.90;;;;;;5086997;27;19931;-70
2023/09/03 05:10:15;;;;;;;8.23;5.18;;;13.40;99.90;;;;;;5095675;27;20039;-70
2023/09/03 05:12:40;;;;;;;7.72;4.88;;;13.40;99.90;;;;;;5084678;28;20043;-70
2023/09/03 05:15:15;;;;;;;7.68;4.55;;;13.50;99.90;;;;;;5066653;28;20117;-70
2023/09/03 05:17:41;;;;;;;8.25;4.78;;;13.50;99.90;;;;;;5077543;28;20049;-69
2023/09/03 05:20:10;;;;;;;8.27;4.70;;;13.50;99.90;;;;;;5086343;28;20464;-69
2023/09/03 05:22:38;;;;;;;7.43;5.15;;;13.50;99.90;;;;;;5099962;27;20481;-70
2023/09/03 05:25:04;;;;;;;6.90;4.75;;;13.60;99.90;;;;;;5090087;27;20043;-70
2023/09/03 05:27:30;;;;;;;;;;;13.60;99.90;;;;;;5083599;28;20050;-70
2023/09/03 05:29:56;;;;;;;8.02;4.75;;;13.50;99.90;;;;;;5088965;27;19919;-71
2023/09/03 05:32:22;;;;;;;8.65;5.43;;;13.60;99.90;;;;;;5083138;28;20382;-70
2023/09/03 05:34:49;;;;;;;8.40;4.65;;;13.60;99.90;;;;;;5084399;27;20094;-71
2023/09/03 05:37:15;;;;;;;10.57;5.57;;;13.60;99.90;;;;;;5107608;27;20119;-71
2023/09/03 05:39:41;;;;;;;7.50;4.60;;;13.60;99.90;;;;;;5085490;28;20131;-70
2023/09/03 05:42:06;;;;;;;6.88;4.47;;;13.70;99.90;;;;;;5101236;28;20582;-71
2023/09/03 05:44:32;;;;;;;8.25;5.30;;;13.70;99.90;;;;;;5094922;28;20133;-70
2023/09/03 05:46:58;;;;;;;8.27;5.07;;;13.70;99.90;;;;;;5089448;28;20075;-70
2023/09/03 05:49:24;;;;;;;7.88;4.85;;;13.80;99.90;;;;;;5087064;28;20043;-71
2023/09/03 05:51:50;;;;;;;7.28;4.70;;;13.80;99.90;;;;;;5106790;28;20142;-71
2023/09/03 05:54:15;;;;;;;8.35;4.38;;;13.80;99.90;;;;;;5061844;28;20123;-70
2023/09/03 05:56:41;;;;;;;7.73;5.03;;;13.80;99.90;;;;;;5092926;28;20420;-70
2023/09/03 05:59:10;;;;;;;8.68;5.55;;;13.90;99.90;;;;;;5084199;28;20414;-70
2023/09/03 06:01:36;;;;;;;9.30;5.35;;;13.90;99.90;;;;;;5092925;28;20401;-70
2023/09/03 06:04:06;;;;;;;7.93;4.93;;;13.90;99.90;;;;;;5089152;28;20037;-71
2023/09/03 06:06:37;;;;;;;8.25;5.20;;;14.00;99.90;;;;;;5086370;28;20135;-71
2023/09/03 06:09:03;;;;;;;6.80;4.43;;;14.00;99.90;;;;;;5086929;28;20054;-71
2023/09/03 06:11:29;;;;;;;6.18;4.30;;;14.00;99.90;;;;;;5089977;28;20048;-71
2023/09/03 06:13:55;;;;;;;5.95;4.25;;;14.10;99.90;;;;;;5082984;28;20044;-71
2023/09/03 06:16:20;;;;;;;13.50;5.75;;;14.10;99.90;;;;;;5065580;28;20040;-71
2023/09/03 06:18:46;;;;;;;9.23;4.18;;;14.20;99.90;;;;;;5076121;28;20391;-71
2023/09/03 06:21:12;;;;;;;6.07;4.10;;;14.20;99.90;;;;;;5090114;28;20030;-70
2023/09/03 06:23:38;;;;;;;6.20;4.40;;;14.30;99.90;;;;;;5101835;28;20581;-70
2023/09/03 06:26:03;;;;;;;8.35;3.92;;;14.40;99.90;;;;;;5090525;28;20086;-70
2023/09/03 06:28:29;;;;;;;7.03;4.43;;;14.40;99.90;;;;;;5083355;28;20325;-69
2023/09/03 06:30:58;;;;;;;7.93;4.45;;;14.40;99.90;;;;;;5099556;27;20275;-70
2023/09/03 06:33:24;;;;;;;8.90;4.88;;;14.50;99.90;;;;;;5066204;28;20405;-70
2023/09/03 06:35:50;;;;;;;6.60;4.38;;;14.50;99.90;;;;;;5106376;28;20043;-67
2023/09/03 06:38:16;;;;;;;6.10;4.35;;;14.60;99.90;;;;;;5097517;28;20396;-67
2023/09/03 06:40:41;;;;;;;7.25;4.45;;;14.60;99.90;;;;;;5081361;28;20044;-67
2023/09/03 06:43:07;;;;;;;6.25;4.10;;;14.70;99.90;;;;;;5099146;28;20119;-68
2023/09/03 06:45:33;;;;;;;7.40;4.63;;;14.70;99.90;;;;;;5083252;28;20119;-68
2023/09/03 06:47:59;;;;;;;6.75;4.43;;;14.80;99.90;;;;;;5085781;28;20131;-67
2023/09/03 06:50:24;;;;;;;7.60;4.03;;;14.90;99.90;;;;;;5098027;28;20040;-67
2023/09/03 06:52:50;;;;;;;5.67;3.87;;;14.90;99.90;;;;;;5088059;27;20044;-68
2023/09/03 06:55:16;;;;;;;8.02;4.28;;;14.90;99.90;;;;;;5078487;27;20295;-68
2023/09/03 06:57:42;;;;;;;7.85;4.07;;;15.00;99.90;;;;;;5068217;27;20063;-67
2023/09/03 07:00:09;;;;;;;7.22;4.07;;;15.10;99.90;;;;;;5108214;27;20039;-67
2023/09/03 07:02:35;;;;;;;6.43;4.15;;;15.20;99.90;;;;;;5095585;27;20067;-67
2023/09/03 07:05:00;;;;;;;6.53;4.00;;;15.20;99.90;;;;;;5110569;27;20499;-68
2023/09/03 07:07:27;;;;;;;7.45;4.32;;;15.30;99.90;;;;;;5094881;27;20589;-68
2023/09/03 07:09:54;;;;;;;6.28;4.07;;;15.40;99.90;;;;;;5076444;27;20437;-67
2023/09/03 07:12:19;;;;;;;5.68;4.00;;;15.50;99.90;;;;;;5103556;27;20044;-67
2023/09/03 07:14:46;;;;;;;8.70;4.50;;;15.60;99.90;;;;;;5084297;27;20055;-69
2023/09/03 07:17:11;;;;;;;;;;;15.60;99.90;;;;;;5089670;28;20403;-68
2023/09/03 07:19:37;;;;;;;7.25;3.40;;;15.70;99.90;;;;;;5113628;27;20006;-67
2023/09/03 07:22:03;;;;;;;4.60;2.90;;;15.80;99.90;;;;;;5099069;27;20032;-68
2023/09/03 07:24:29;;;;;;;4.68;3.15;;;15.80;99.90;;;;;;5098298;27;20047;-67
2023/09/03 07:26:55;;;;;;;5.03;2.90;;;16.00;99.90;;;;;;5089902;28;20081;-67
2023/09/03 07:29:20;;;;;;;6.65;2.97;;;16.10;99.90;;;;;;5090052;28;20504;-69
2023/09/03 07:31:46;;;;;;;5.93;3.15;;;16.10;99.90;;;;;;5066054;27;20485;-67
2023/09/03 07:34:15;;;;;;;5.50;3.85;;;16.30;99.90;;;;;;5110699;27;20040;-70
2023/09/03 07:36:42;;;;;;;6.13;3.00;;;16.30;99.90;;;;;;5070884;27;20126;-68
2023/09/03 07:39:09;;;;;;;4.63;2.63;;;16.40;99.90;;;;;;5069083;28;20036;-68
2023/09/03 07:41:36;;;;;;;5.00;2.40;;;16.50;99.90;;;;;;5090047;27;20127;-67
2023/09/03 07:44:02;;;;;;;4.13;2.22;;;16.60;99.90;;;;;;5093873;28;20400;-67
2023/09/03 07:46:28;;;;;;;4.57;2.08;;;16.70;99.90;;;;;;5090769;27;20036;-67
2023/09/03 07:48:54;;;;;;;5.43;2.50;;;16.80;99.90;;;;;;5081739;28;20035;-68
2023/09/03 07:51:20;;;;;;;10.80;4.93;;;16.80;99.90;;;;;;5092931;28;20035;-67
2023/09/03 07:53:49;;;;;;;18.40;8.30;;;16.90;99.90;;;;;;5115418;27;20050;-68
2023/09/03 07:56:16;;;;;;;11.35;5.65;;;16.90;99.90;;;;;;5092591;28;20072;-67
2023/09/03 07:58:45;;;;;;;6.53;4.13;;;17.00;99.90;;;;;;5093250;27;20048;-67
2023/09/03 08:01:11;;;;;;;4.88;2.63;;;17.00;99.90;;;;;;5084652;28;20039;-67
2023/09/03 08:03:40;;;;;;;4.05;2.22;;;17.10;99.90;;;;;;5107050;27;20086;-68
2023/09/03 08:06:09;;;;;;;3.95;2.05;;;17.10;99.90;;;;;;5086537;28;20040;-67
2023/09/03 08:08:38;;;;;;;4.38;2.17;;;17.20;99.90;;;;;;5093589;27;20043;-68
2023/09/03 08:11:04;;;;;;;4.55;2.22;;;17.20;99.90;;;;;;5084035;28;20089;-68
2023/09/03 08:13:30;;;;;;;7.30;3.05;;;17.30;99.90;;;;;;5094438;27;20034;-68
2023/09/03 08:15:55;;;;;;;5.80;2.53;;;17.30;99.90;;;;;;5089222;27;20043;-69
2023/09/03 08:18:24;;;;;;;4.05;2.30;;;17.30;99.90;;;;;;5095157;28;20085;-67
2023/09/03 08:20:50;;;;;;;3.80;2.28;;;17.40;99.90;;;;;;5087521;28;20044;-67
2023/09/03 08:23:16;;;;;;;3.53;2.17;;;17.40;99.90;;;;;;5085518;28;20118;-68
2023/09/03 08:25:44;;;;;;;5.22;2.25;;;17.50;99.90;;;;;;5112448;27;20185;-68
2023/09/03 08:28:10;;;;;;;6.30;2.10;;;17.60;99.90;;;;;;5095413;28;20050;-67
2023/09/03 08:30:37;;;;;;;3.67;2.60;;;17.60;99.90;;;;;;5092620;27;20100;-68
2023/09/03 08:33:03;;;;;;;4.50;2.65;;;17.70;99.90;;;;;;5095204;27;20128;-68
2023/09/03 08:35:29;;;;;;;;;;;17.70;99.90;;;;;;5093591;27;20416;-67
2023/09/03 08:37:55;;;;;;;6.35;2.67;;;17.80;99.90;;;;;;5118963;27;19915;-68
2023/09/03 08:40:21;;;;;;;4.22;2.50;;;17.80;99.90;;;;;;5070944;28;20039;-68
2023/09/03 08:42:48;;;;;;;5.13;2.65;;;17.80;99.90;;;;;;5094072;28;20039;-68
2023/09/03 08:45:16;;;;;;;5.07;2.90;;;17.90;99.90;;;;;;5082068;28;20040;-68
2023/09/03 08:47:44;;;;;;;4.85;2.92;;;18.00;99.90;;;;;;5097270;27;20055;-68
2023/09/03 08:50:14;;;;;;;5.07;2.90;;;18.00;99.90;;;;;;5100953;27;20040;-69
2023/09/03 08:52:43;;;;;;;5.32;2.55;;;18.10;99.90;;;;;;5116231;27;20027;-69
2023/09/03 08:55:14;;;;;;;4.95;2.70;;;18.20;99.90;;;;;;5090980;28;20039;-68
2023/09/03 08:57:40;;;;;;;5.35;2.35;;;18.30;99.90;;;;;;5086368;27;20044;-68
2023/09/03 09:00:12;;;;;;;7.13;3.60;;;18.30;99.90;;;;;;5095928;27;20034;-69
2023/09/03 09:02:38;;;;;;;11.07;3.40;;;18.50;99.90;;;;;;5099686;27;20055;-68
2023/09/03 09:05:06;;;;;;;5.50;3.35;;;18.50;99.90;;;;;;5117611;27;20493;-68
2023/09/03 09:07:32;;;;;;;3.60;2.22;;;18.60;99.90;;;;;;5083905;28;20505;-69
2023/09/03 09:10:01;;;;;;;5.35;3.10;;;18.70;99.90;;;;;;5107195;27;20031;-68
2023/09/03 09:12:50;;;;;;;5.40;3.17;;;18.80;99.90;;;;;;5073046;27;20118;-68
2023/09/03 09:15:16;;;;;;;4.68;2.50;;;18.80;99.90;;;;;;5082560;28;20036;-68
2023/09/03 09:17:43;;;;;;;3.95;2.10;;;18.80;99.90;;;;;;5087723;27;20429;-68
2023/09/03 09:20:12;;;;;;;4.15;2.30;;;18.90;99.90;;;;;;5102336;27;20075;-69
2023/09/03 09:22:42;;;;;;;3.38;1.80;;;19.00;99.90;;;;;;5083998;28;20035;-68
2023/09/03 09:25:10;;;;;;;2.85;1.60;;;19.10;99.90;;;;;;5102266;27;20043;-69
2023/09/03 09:27:37;;;;;;;2.67;1.60;;;19.10;99.90;;;;;;5088485;27;20035;-68
2023/09/03 09:30:20;;;;;;;3.10;1.58;;;19.20;99.90;;;;;;5081021;28;20040;-69
2023/09/03 09:32:46;;;;;;;3.70;2.08;;;19.30;99.90;;;;;;5083625;28;20032;-68
2023/09/03 09:35:25;;;;;;;3.88;1.88;;;19.40;99.90;;;;;;5101254;27;20258;-69
2023/09/03 09:37:53;;;;;;;5.60;2.40;;;19.50;99.90;;;;;;5098708;28;20438;-69
2023/09/03 09:40:31;;;;;;;4.40;2.03;;;19.50;99.90;;;;;;5075581;28;20485;-69
2023/09/03 09:45:49;;;;;;;3.33;1.77;;;19.50;99.90;;;;;;4999077;28;20403;-68
2023/09/03 09:48:15;;;;;;;5.85;2.47;;;19.50;99.90;;;;;;5002132;28;20038;-68
2023/09/03 09:50:43;;;;;;;6.78;2.60;;;19.50;99.90;;;;;;4999857;28;20133;-68
2023/09/03 09:53:24;;;;;;;6.13;2.20;;;19.60;99.90;;;;;;4976037;28;20396;-68
2023/09/03 09:56:03;;;;;;;2.60;1.75;;;19.50;99.90;;;;;;4983612;28;20810;-68
2023/09/03 09:58:36;;;;;;;4.72;2.22;;;19.50;99.90;;;;;;4967229;28;20046;-68
2023/09/03 10:01:03;;;;;;;4.15;2.40;;;19.60;99.90;;;;;;4996347;28;20050;-69
2023/09/03 10:03:41;;;;;;;;;;;19.50;99.90;;;;;;4992361;28;20042;-68
2023/09/03 10:06:08;;;;;;;3.53;1.80;;;19.60;99.90;;;;;;5005660;28;20353;-68
2023/09/03 10:08:35;;;;;;;3.80;2.17;;;19.70;99.90;;;;;;4986824;28;20042;-68
2023/09/03 10:11:02;;;;;;;3.13;2.30;;;19.70;99.90;;;;;;4984675;28;20110;-68
2023/09/03 10:13:30;;;;;;;5.03;2.65;;;19.60;99.90;;;;;;4995902;28;20396;-68
2023/09/03 10:16:02;;;;;;;5.35;2.53;;;19.60;99.90;;;;;;5001624;28;20111;-69
2023/09/03 10:18:30;;;;;;;3.67;1.85;;;19.70;99.90;;;;;;5005997;28;20072;-68
2023/09/03 10:21:01;;;;;;;2.88;1.90;;;19.70;99.90;;;;;;4989929;28;20087;-69
2023/09/03 10:23:33;;;;;;;3.30;1.50;;;19.90;99.90;;;;;;5003352;28;20392;-69
2023/09/03 10:26:01;;;;;;;3.65;1.75;;;20.00;99.90;;;;;;4987926;28;20144;-68
2023/09/03 10:28:28;;;;;;;2.75;1.60;;;20.10;99.90;;;;;;4979318;28;20041;-68
2023/09/03 10:30:54;;;;;;;6.30;1.90;;;20.30;99.90;;;;;;4992577;28;20041;-70
2023/09/03 10:33:20;;;;;;;3.40;1.67;;;20.40;99.90;;;;;;4996821;28;20076;-68
2023/09/03 10:36:15;;;;;;;6.28;1.75;;;20.50;99.90;;;;;;4994711;28;20034;-68
2023/09/03 10:38:42;;;;;;;3.05;1.35;;;20.70;99.90;;;;;;4986311;28;20061;-69
2023/09/03 10:41:24;;;;;;;4.28;1.50;;;20.80;99.90;;;;;;4973676;28;20076;-69
2023/09/03 10:43:54;;;;;;;2.28;1.33;;;20.80;99.90;;;;;;5014727;28;20041;-68
2023/09/03 10:46:25;;;;;;;5.07;1.67;;;20.80;99.90;;;;;;5009502;28;20056;-68
2023/09/03 10:48:55;;;;;;;3.15;1.55;;;20.80;99.90;;;;;;5009843;28;20510;-69
2023/09/03 10:51:37;;;;;;;3.15;1.30;;;20.80;99.90;;;;;;5001880;28;20403;-68
2023/09/03 10:54:17;;;;;;;1.90;1.17;;;20.80;99.90;;;;;;4991079;28;20091;-69
2023/09/03 10:57:05;;;;;;;3.97;1.00;;;20.90;99.90;;;;;;4994844;28;20193;-69
2023/09/03 11:00:06;;;;;;;1.95;0.90;;;20.90;99.90;;;;;;5025865;28;20025;-69
2023/09/03 11:02:33;;;;;;;2.13;0.82;;;21.00;99.90;;;;;;5007990;28;20034;-68
2023/09/03 11:05:20;;;;;;;3.35;1.33;;;21.10;99.90;;;;;;5018148;28;20107;-69
2023/09/03 11:07:47;;;;;;;2.50;1.10;;;21.20;99.90;;;;;;5009047;28;20184;-69
2023/09/03 11:10:25;;;;;;;1.60;0.80;;;21.40;99.90;;;;;;5029062;28;20076;-69
2023/09/03 11:12:52;;;;;;;1.17;0.70;;;21.40;99.90;;;;;;5011065;28;20045;-68
2023/09/03 11:15:18;;;;;;;2.00;0.90;;;21.50;99.90;;;;;;5009020;28;20142;-69
2023/09/03 11:17:52;;;;;;;2.03;0.88;;;21.60;99.90;;;;;;5009292;28;20045;-69
2023/09/03 11:20:28;;;;;;;1.63;0.88;;;21.70;99.90;;;;;;5007143;28;20037;-69
2023/09/03 11:22:57;;;;;;;5.32;1.70;;;21.80;99.90;;;;;;5028008;28;20040;-69
2023/09/03 11:25:37;;;;;;;6.55;2.30;;;21.80;99.90;;;;;;5011581;28;20068;-69
2023/09/03 11:28:04;;;;;;;3.95;1.13;;;21.90;99.90;;;;;;5011833;28;20045;-69
2023/09/03 11:30:30;;;;;;;2.38;0.90;;;21.90;99.90;;;;;;5025252;28;20136;-69
2023/09/03 11:32:56;;;;;;;2.42;0.80;;;21.90;99.90;;;;;;5015364;28;20087;-69
2023/09/03 11:35:23;;;;;;;;;;;22.10;99.90;;;;;;5023378;28;20034;-69
2023/09/03 11:37:50;;;;;;;2.03;1.20;;;22.10;99.90;;;;;;5010179;28;19921;-69
2023/09/03 11:40:17;;;;;;;1.55;1.00;;;22.20;99.90;;;;;;5007360;28;20474;-69
2023/09/03 11:42:44;;;;;;;5.22;1.33;;;22.30;99.90;;;;;;5009931;28;20560;-69
2023/09/03 11:45:11;;;;;;;4.82;1.88;;;22.40;99.90;;;;;;5008425;28;20106;-69
2023/09/03 11:47:50;;;;;;;3.65;1.80;;;22.40;99.90;;;;;;5005866;28;20041;-69
2023/09/03 11:50:17;;;;;;;2.65;1.50;;;22.40;99.90;;;;;;5004048;28;20097;-69
2023/09/03 11:52:53;;;;;;;2.78;1.25;;;22.40;99.90;;;;;;5010098;28;20491;-69
2023/09/03 11:55:20;;;;;;;3.00;1.30;;;22.50;99.90;;;;;;5009340;28;20124;-69
2023/09/03 11:57:47;;;;;;;4.53;1.30;;;22.60;99.90;;;;;;5007240;28;20057;-69
2023/09/03 12:00:15;;;;;;;3.17;1.30;;;22.60;99.90;;;;;;5023097;28;20073;-69
2023/09/03 12:02:42;;;;;;;3.55;1.20;;;22.70;99.90;;;;;;5002336;28;20072;-69
2023/09/03 12:05:09;;;;;;;2.90;0.85;;;22.70;99.90;;;;;;4991723;28;20045;-69
2023/09/03 12:07:35;;;;;;;1.95;0.90;;;22.70;99.90;;;;;;5007189;28;20106;-69
2023/09/03 12:10:01;;;;;;;;;;;22.70;99.90;;;;;;5008316;28;20280;-69
2023/09/03 12:12:27;;;;;;;3.03;1.30;;;22.80;99.90;;;;;;5006419;28;20414;-69
2023/09/03 12:14:53;;;;;;;2.78;1.13;;;22.80;99.90;;;;;;5012318;28;20442;-69
2023/09/03 12:17:28;;;;;;;;;;;22.90;99.90;;;;;;5027206;28;20045;-69
2023/09/03 12:19:54;;;;;;;3.35;1.15;;;22.90;99.90;;;;;;5021432;28;19976;-69
2023/09/03 12:22:22;;;;;;;6.32;1.10;;;23.10;99.90;;;;;;5009325;28;20048;-69
2023/09/03 12:24:49;;;;;;;1.90;1.10;;;23.20;99.90;;;;;;5005898;28;20106;-69
2023/09/03 12:27:15;;;;;;;1.17;0.70;;;23.30;99.90;;;;;;5024642;28;20065;-69
2023/09/03 12:29:43;;;;;;;3.30;1.13;;;23.40;99.90;;;;;;4999267;28;20045;-70
2023/09/03 12:32:15;;;;;;;3.75;1.08;;;23.50;99.90;;;;;;5006829;28;20037;-69
2023/09/03 12:34:48;;;;;;;12.48;2.75;;;23.50;99.90;;;;;;5023290;28;20571;-70
2023/09/03 12:37:17;;;;;;;1.45;0.70;;;23.70;99.90;;;;;;5007281;28;20052;-69
2023/09/03 12:39:43;;;;;;;2.45;1.02;;;23.80;99.90;;;;;;5023254;28;20052;-69
2023/09/03 12:42:09;;;;;;;1.98;1.00;;;23.90;99.90;;;;;;5000850;28;20046;-69
2023/09/03 12:44:35;;;;;;;1.55;0.90;;;24.00;99.90;;;;;;5020862;28;20091;-69
2023/09/03 12:47:05;;;;;;;3.33;0.95;;;24.10;99.90;;;;;;5020398;28;20135;-69
2023/09/03 12:49:31;;;;;;;3.30;0.90;;;24.30;99.90;;;;;;5005178;28;20052;-69
2023/09/03 12:51:57;;;;;;;4.85;2.40;;;24.30;99.90;;;;;;5023231;28;20322;-69
2023/09/03 12:54:23;;;;;;;2.45;1.45;;;24.30;99.90;;;;;;4990060;28;20049;-69